sensor_id;sensor_type;location;lat;lon;timestamp;P1;durP1;ratioP1;P2;durP2;ratioP2
75289;SDS011;63883;48.996;20.804;2023-02-14T00:01:40;5.82;;;3.53;;
75289;SDS011;63883;48.996;20.804;2023-02-14T00:04:07;4.10;;;2.90;;
75289;SDS011;63883;48.996;20.804;2023-02-14T00:06:33;5.53;;;3.33;;
75289;SDS011;63883;48.996;20.804;2023-02-14T00:09:00;5.25;;;3.15;;
75289;SDS011;63883;48.996;20.804;2023-02-14T00:11:26;4.63;;;3.50;;
75289;SDS011;63883;48.996;20.804;2023-02-14T00:13:52;4.53;;;3.30;;
75289;SDS011;63883;48.996;20.804;2023-02-14T00:16:37;6.15;;;3.53;;
75289;SDS011;63883;48.996;20.804;2023-02-14T00:19:03;3.75;;;2.90;;
75289;SDS011;63883;48.996;20.804;2023-02-14T00:21:32;4.50;;;3.15;;
75289;SDS011;63883;48.996;20.804;2023-02-14T00:24:01;3.33;;;2.58;;
75289;SDS011;63883;48.996;20.804;2023-02-14T00:26:27;3.67;;;3.10;;
75289;SDS011;63883;48.996;20.804;2023-02-14T00:28:53;4.00;;;3.03;;
75289;SDS011;63883;48.996;20.804;2023-02-14T00:31:19;5.13;;;3.00;;
75289;SDS011;63883;48.996;20.804;2023-02-14T00:33:45;5.75;;;3.10;;
75289;SDS011;63883;48.996;20.804;2023-02-14T00:36:10;3.92;;;3.10;;
75289;SDS011;63883;48.996;20.804;2023-02-14T00:38:36;5.07;;;3.72;;
75289;SDS011;63883;48.996;20.804;2023-02-14T00:41:02;3.30;;;2.60;;
75289;SDS011;63883;48.996;20.804;2023-02-14T00:43:29;3.33;;;2.72;;
75289;SDS011;63883;48.996;20.804;2023-02-14T00:45:55;3.30;;;2.50;;
75289;SDS011;63883;48.996;20.804;2023-02-14T00:48:21;3.30;;;2.30;;
75289;SDS011;63883;48.996;20.804;2023-02-14T00:50:46;3.83;;;2.60;;
75289;SDS011;63883;48.996;20.804;2023-02-14T00:53:12;3.33;;;2.63;;
75289;SDS011;63883;48.996;20.804;2023-02-14T00:55:38;3.50;;;2.67;;
75289;SDS011;63883;48.996;20.804;2023-02-14T00:58:04;2.50;;;2.20;;
75289;SDS011;63883;48.996;20.804;2023-02-14T01:00:30;4.82;;;2.80;;
75289;SDS011;63883;48.996;20.804;2023-02-14T01:02:56;4.15;;;2.72;;
75289;SDS011;63883;48.996;20.804;2023-02-14T01:05:21;6.05;;;3.50;;
75289;SDS011;63883;48.996;20.804;2023-02-14T01:07:47;5.75;;;3.78;;
75289;SDS011;63883;48.996;20.804;2023-02-14T01:10:13;6.55;;;4.03;;
75289;SDS011;63883;48.996;20.804;2023-02-14T01:12:39;8.13;;;4.05;;
75289;SDS011;63883;48.996;20.804;2023-02-14T01:15:04;6.38;;;3.90;;
75289;SDS011;63883;48.996;20.804;2023-02-14T01:17:30;7.72;;;4.20;;
75289;SDS011;63883;48.996;20.804;2023-02-14T01:19:56;8.57;;;4.68;;
75289;SDS011;63883;48.996;20.804;2023-02-14T01:22:22;6.80;;;4.15;;
75289;SDS011;63883;48.996;20.804;2023-02-14T01:24:48;6.60;;;3.90;;
75289;SDS011;63883;48.996;20.804;2023-02-14T01:27:13;11.40;;;6.10;;
75289;SDS011;63883;48.996;20.804;2023-02-14T01:29:39;7.30;;;4.28;;
75289;SDS011;63883;48.996;20.804;2023-02-14T01:32:05;8.00;;;4.30;;
75289;SDS011;63883;48.996;20.804;2023-02-14T01:34:30;12.88;;;6.72;;
75289;SDS011;63883;48.996;20.804;2023-02-14T01:36:56;13.13;;;7.05;;
75289;SDS011;63883;48.996;20.804;2023-02-14T01:39:21;11.32;;;5.78;;
75289;SDS011;63883;48.996;20.804;2023-02-14T01:41:47;11.32;;;6.68;;
75289;SDS011;63883;48.996;20.804;2023-02-14T01:46:39;8.90;;;4.85;;
75289;SDS011;63883;48.996;20.804;2023-02-14T01:52:18;6.90;;;3.92;;
75289;SDS011;63883;48.996;20.804;2023-02-14T01:54:48;6.05;;;4.10;;
75289;SDS011;63883;48.996;20.804;2023-02-14T01:57:18;5.22;;;3.30;;
75289;SDS011;63883;48.996;20.804;2023-02-14T01:59:56;9.40;;;5.75;;
75289;SDS011;63883;48.996;20.804;2023-02-14T02:02:45;6.43;;;4.07;;
75289;SDS011;63883;48.996;20.804;2023-02-14T02:05:11;5.65;;;3.85;;
75289;SDS011;63883;48.996;20.804;2023-02-14T02:07:37;6.10;;;4.25;;
75289;SDS011;63883;48.996;20.804;2023-02-14T02:10:05;7.43;;;3.70;;
75289;SDS011;63883;48.996;20.804;2023-02-14T02:12:32;4.63;;;3.10;;
75289;SDS011;63883;48.996;20.804;2023-02-14T02:15:03;4.28;;;2.90;;
75289;SDS011;63883;48.996;20.804;2023-02-14T02:31:16;3.83;;;2.65;;
75289;SDS011;63883;48.996;20.804;2023-02-14T02:47:17;5.43;;;3.47;;
75289;SDS011;63883;48.996;20.804;2023-02-14T02:53:14;4.32;;;2.80;;
75289;SDS011;63883;48.996;20.804;2023-02-14T02:58:37;5.05;;;2.80;;
75289;SDS011;63883;48.996;20.804;2023-02-14T03:01:08;4.05;;;2.70;;
75289;SDS011;63883;48.996;20.804;2023-02-14T03:03:38;4.15;;;2.80;;
75289;SDS011;63883;48.996;20.804;2023-02-14T03:06:25;11.60;;;6.13;;
75289;SDS011;63883;48.996;20.804;2023-02-14T03:08:51;11.48;;;6.32;;
75289;SDS011;63883;48.996;20.804;2023-02-14T03:11:17;11.13;;;6.50;;
75289;SDS011;63883;48.996;20.804;2023-02-14T03:16:48;10.10;;;5.95;;
75289;SDS011;63883;48.996;20.804;2023-02-14T03:19:41;10.82;;;5.65;;
75289;SDS011;63883;48.996;20.804;2023-02-14T03:22:39;9.55;;;5.80;;
75289;SDS011;63883;48.996;20.804;2023-02-14T03:27:52;9.35;;;5.50;;
75289;SDS011;63883;48.996;20.804;2023-02-14T03:30:27;8.50;;;5.07;;
75289;SDS011;63883;48.996;20.804;2023-02-14T03:36:00;8.88;;;4.82;;
75289;SDS011;63883;48.996;20.804;2023-02-14T03:38:43;7.50;;;4.20;;
75289;SDS011;63883;48.996;20.804;2023-02-14T03:41:16;8.15;;;4.32;;
75289;SDS011;63883;48.996;20.804;2023-02-14T03:43:59;7.75;;;4.68;;
75289;SDS011;63883;48.996;20.804;2023-02-14T03:46:30;6.68;;;3.90;;
75289;SDS011;63883;48.996;20.804;2023-02-14T03:49:02;8.48;;;4.47;;
75289;SDS011;63883;48.996;20.804;2023-02-14T03:51:32;7.35;;;4.28;;
75289;SDS011;63883;48.996;20.804;2023-02-14T03:54:01;7.80;;;4.40;;
75289;SDS011;63883;48.996;20.804;2023-02-14T03:56:31;7.90;;;4.07;;
75289;SDS011;63883;48.996;20.804;2023-02-14T03:59:09;7.63;;;4.57;;
75289;SDS011;63883;48.996;20.804;2023-02-14T04:04:07;7.20;;;4.53;;
75289;SDS011;63883;48.996;20.804;2023-02-14T04:06:34;8.27;;;5.25;;
75289;SDS011;63883;48.996;20.804;2023-02-14T04:09:00;10.32;;;5.90;;
75289;SDS011;63883;48.996;20.804;2023-02-14T04:11:25;11.07;;;5.95;;
75289;SDS011;63883;48.996;20.804;2023-02-14T04:13:52;11.18;;;6.03;;
75289;SDS011;63883;48.996;20.804;2023-02-14T04:16:17;13.55;;;6.72;;
75289;SDS011;63883;48.996;20.804;2023-02-14T04:18:43;10.18;;;5.85;;
75289;SDS011;63883;48.996;20.804;2023-02-14T04:21:27;9.45;;;4.78;;
75289;SDS011;63883;48.996;20.804;2023-02-14T04:23:53;8.75;;;4.82;;
75289;SDS011;63883;48.996;20.804;2023-02-14T04:26:19;8.35;;;4.60;;
75289;SDS011;63883;48.996;20.804;2023-02-14T04:28:44;8.73;;;5.00;;
75289;SDS011;63883;48.996;20.804;2023-02-14T04:31:10;9.38;;;5.40;;
75289;SDS011;63883;48.996;20.804;2023-02-14T04:33:36;9.05;;;4.93;;
75289;SDS011;63883;48.996;20.804;2023-02-14T04:36:03;7.80;;;4.53;;
75289;SDS011;63883;48.996;20.804;2023-02-14T04:38:30;7.18;;;4.30;;
75289;SDS011;63883;48.996;20.804;2023-02-14T04:40:56;7.60;;;4.28;;
75289;SDS011;63883;48.996;20.804;2023-02-14T04:43:22;7.32;;;4.15;;
75289;SDS011;63883;48.996;20.804;2023-02-14T04:45:47;7.30;;;4.13;;
75289;SDS011;63883;48.996;20.804;2023-02-14T04:48:13;10.55;;;5.72;;
75289;SDS011;63883;48.996;20.804;2023-02-14T04:50:39;21.60;;;9.60;;
75289;SDS011;63883;48.996;20.804;2023-02-14T04:53:05;17.85;;;8.30;;
75289;SDS011;63883;48.996;20.804;2023-02-14T04:55:31;20.95;;;9.40;;
75289;SDS011;63883;48.996;20.804;2023-02-14T04:57:57;27.00;;;12.38;;
75289;SDS011;63883;48.996;20.804;2023-02-14T05:00:22;28.17;;;13.57;;
75289;SDS011;63883;48.996;20.804;2023-02-14T05:02:49;15.80;;;8.43;;
75289;SDS011;63883;48.996;20.804;2023-02-14T05:05:14;11.38;;;6.53;;
75289;SDS011;63883;48.996;20.804;2023-02-14T05:07:40;11.13;;;6.57;;
75289;SDS011;63883;48.996;20.804;2023-02-14T05:10:11;14.52;;;7.78;;
75289;SDS011;63883;48.996;20.804;2023-02-14T05:12:37;13.20;;;7.32;;
75289;SDS011;63883;48.996;20.804;2023-02-14T05:15:03;9.13;;;5.25;;
75289;SDS011;63883;48.996;20.804;2023-02-14T05:17:29;7.20;;;4.15;;
75289;SDS011;63883;48.996;20.804;2023-02-14T05:19:54;8.70;;;4.50;;
75289;SDS011;63883;48.996;20.804;2023-02-14T05:22:20;9.35;;;4.93;;
75289;SDS011;63883;48.996;20.804;2023-02-14T05:24:46;7.65;;;4.80;;
75289;SDS011;63883;48.996;20.804;2023-02-14T05:27:12;6.78;;;4.60;;
75289;SDS011;63883;48.996;20.804;2023-02-14T05:29:37;7.35;;;4.43;;
75289;SDS011;63883;48.996;20.804;2023-02-14T05:32:03;9.00;;;5.25;;
75289;SDS011;63883;48.996;20.804;2023-02-14T05:34:29;8.13;;;4.78;;
75289;SDS011;63883;48.996;20.804;2023-02-14T05:36:55;8.93;;;5.28;;
75289;SDS011;63883;48.996;20.804;2023-02-14T05:39:21;7.75;;;4.90;;
75289;SDS011;63883;48.996;20.804;2023-02-14T05:41:47;9.02;;;5.25;;
75289;SDS011;63883;48.996;20.804;2023-02-14T05:44:13;8.85;;;5.20;;
75289;SDS011;63883;48.996;20.804;2023-02-14T05:46:39;11.00;;;5.88;;
75289;SDS011;63883;48.996;20.804;2023-02-14T05:49:04;13.43;;;7.75;;
75289;SDS011;63883;48.996;20.804;2023-02-14T05:51:30;11.00;;;6.13;;
75289;SDS011;63883;48.996;20.804;2023-02-14T05:53:56;9.52;;;5.72;;
75289;SDS011;63883;48.996;20.804;2023-02-14T05:56:24;9.80;;;6.05;;
75289;SDS011;63883;48.996;20.804;2023-02-14T05:58:49;11.73;;;6.40;;
75289;SDS011;63883;48.996;20.804;2023-02-14T06:01:15;13.05;;;6.82;;
75289;SDS011;63883;48.996;20.804;2023-02-14T06:03:41;14.30;;;7.15;;
75289;SDS011;63883;48.996;20.804;2023-02-14T06:06:07;12.60;;;7.30;;
75289;SDS011;63883;48.996;20.804;2023-02-14T06:08:32;11.57;;;7.07;;
75289;SDS011;63883;48.996;20.804;2023-02-14T06:10:58;11.48;;;6.18;;
75289;SDS011;63883;48.996;20.804;2023-02-14T06:13:24;10.15;;;5.60;;
75289;SDS011;63883;48.996;20.804;2023-02-14T06:15:50;13.93;;;7.78;;
75289;SDS011;63883;48.996;20.804;2023-02-14T06:18:15;12.70;;;7.50;;
75289;SDS011;63883;48.996;20.804;2023-02-14T06:20:41;13.88;;;7.10;;
75289;SDS011;63883;48.996;20.804;2023-02-14T06:23:06;14.88;;;8.15;;
75289;SDS011;63883;48.996;20.804;2023-02-14T06:25:32;40.08;;;19.17;;
75289;SDS011;63883;48.996;20.804;2023-02-14T06:27:58;21.88;;;11.77;;
75289;SDS011;63883;48.996;20.804;2023-02-14T06:30:24;44.00;;;21.52;;
75289;SDS011;63883;48.996;20.804;2023-02-14T06:32:50;26.05;;;13.57;;
75289;SDS011;63883;48.996;20.804;2023-02-14T06:35:16;24.30;;;12.32;;
75289;SDS011;63883;48.996;20.804;2023-02-14T06:37:41;15.90;;;8.55;;
75289;SDS011;63883;48.996;20.804;2023-02-14T06:40:09;14.48;;;7.80;;
75289;SDS011;63883;48.996;20.804;2023-02-14T06:42:36;16.17;;;9.05;;
75289;SDS011;63883;48.996;20.804;2023-02-14T06:45:03;21.80;;;10.63;;
75289;SDS011;63883;48.996;20.804;2023-02-14T06:47:30;21.45;;;10.82;;
75289;SDS011;63883;48.996;20.804;2023-02-14T06:49:56;14.30;;;7.60;;
75289;SDS011;63883;48.996;20.804;2023-02-14T06:52:24;8.70;;;5.13;;
75289;SDS011;63883;48.996;20.804;2023-02-14T06:54:50;10.45;;;5.72;;
75289;SDS011;63883;48.996;20.804;2023-02-14T06:57:16;10.25;;;5.63;;
75289;SDS011;63883;48.996;20.804;2023-02-14T06:59:42;9.02;;;4.25;;
75289;SDS011;63883;48.996;20.804;2023-02-14T07:02:08;11.95;;;6.05;;
75289;SDS011;63883;48.996;20.804;2023-02-14T07:04:35;12.48;;;7.38;;
75289;SDS011;63883;48.996;20.804;2023-02-14T07:07:01;9.55;;;4.97;;
75289;SDS011;63883;48.996;20.804;2023-02-14T07:09:27;9.10;;;5.25;;
75289;SDS011;63883;48.996;20.804;2023-02-14T07:11:53;9.75;;;5.72;;
75289;SDS011;63883;48.996;20.804;2023-02-14T07:14:19;7.57;;;4.80;;
75289;SDS011;63883;48.996;20.804;2023-02-14T07:16:44;9.23;;;5.43;;
75289;SDS011;63883;48.996;20.804;2023-02-14T07:19:10;7.43;;;4.40;;
75289;SDS011;63883;48.996;20.804;2023-02-14T07:21:36;7.68;;;4.22;;
75289;SDS011;63883;48.996;20.804;2023-02-14T07:24:02;7.97;;;4.57;;
75289;SDS011;63883;48.996;20.804;2023-02-14T07:26:27;8.18;;;4.38;;
75289;SDS011;63883;48.996;20.804;2023-02-14T07:28:53;8.57;;;5.00;;
75289;SDS011;63883;48.996;20.804;2023-02-14T07:31:19;8.25;;;4.70;;
75289;SDS011;63883;48.996;20.804;2023-02-14T07:33:47;9.35;;;5.07;;
75289;SDS011;63883;48.996;20.804;2023-02-14T07:36:12;8.77;;;4.93;;
75289;SDS011;63883;48.996;20.804;2023-02-14T07:38:38;7.20;;;4.70;;
75289;SDS011;63883;48.996;20.804;2023-02-14T07:41:04;8.13;;;4.90;;
75289;SDS011;63883;48.996;20.804;2023-02-14T07:43:29;15.02;;;7.95;;
75289;SDS011;63883;48.996;20.804;2023-02-14T07:45:58;12.65;;;7.35;;
75289;SDS011;63883;48.996;20.804;2023-02-14T07:48:24;8.10;;;4.88;;
75289;SDS011;63883;48.996;20.804;2023-02-14T07:50:50;9.70;;;4.55;;
75289;SDS011;63883;48.996;20.804;2023-02-14T07:53:16;6.80;;;3.88;;
75289;SDS011;63883;48.996;20.804;2023-02-14T07:55:41;6.35;;;3.75;;
75289;SDS011;63883;48.996;20.804;2023-02-14T07:58:07;7.90;;;4.80;;
75289;SDS011;63883;48.996;20.804;2023-02-14T08:00:33;8.48;;;4.50;;
75289;SDS011;63883;48.996;20.804;2023-02-14T08:02:59;9.90;;;4.30;;
75289;SDS011;63883;48.996;20.804;2023-02-14T08:05:24;9.80;;;4.30;;
75289;SDS011;63883;48.996;20.804;2023-02-14T08:07:50;6.55;;;4.15;;
75289;SDS011;63883;48.996;20.804;2023-02-14T08:10:16;7.93;;;3.67;;
75289;SDS011;63883;48.996;20.804;2023-02-14T08:12:43;6.93;;;4.25;;
75289;SDS011;63883;48.996;20.804;2023-02-14T08:15:28;7.25;;;3.85;;
75289;SDS011;63883;48.996;20.804;2023-02-14T08:18:16;6.47;;;3.97;;
75289;SDS011;63883;48.996;20.804;2023-02-14T08:20:43;8.73;;;5.05;;
75289;SDS011;63883;48.996;20.804;2023-02-14T08:23:10;5.70;;;3.85;;
75289;SDS011;63883;48.996;20.804;2023-02-14T08:25:36;8.35;;;4.15;;
75289;SDS011;63883;48.996;20.804;2023-02-14T08:28:02;6.63;;;3.97;;
75289;SDS011;63883;48.996;20.804;2023-02-14T08:30:29;7.18;;;4.38;;
75289;SDS011;63883;48.996;20.804;2023-02-14T08:32:55;8.05;;;4.72;;
75289;SDS011;63883;48.996;20.804;2023-02-14T08:35:21;9.27;;;4.60;;
75289;SDS011;63883;48.996;20.804;2023-02-14T08:37:47;7.53;;;4.30;;
75289;SDS011;63883;48.996;20.804;2023-02-14T08:40:13;7.35;;;4.45;;
75289;SDS011;63883;48.996;20.804;2023-02-14T08:42:39;6.47;;;4.10;;
75289;SDS011;63883;48.996;20.804;2023-02-14T08:45:04;7.50;;;4.10;;
75289;SDS011;63883;48.996;20.804;2023-02-14T08:47:31;7.13;;;3.70;;
75289;SDS011;63883;48.996;20.804;2023-02-14T08:50:07;7.30;;;4.18;;
75289;SDS011;63883;48.996;20.804;2023-02-14T08:52:35;7.32;;;3.85;;
75289;SDS011;63883;48.996;20.804;2023-02-14T08:55:01;6.25;;;3.80;;
75289;SDS011;63883;48.996;20.804;2023-02-14T08:57:27;6.72;;;3.78;;
75289;SDS011;63883;48.996;20.804;2023-02-14T08:59:53;7.93;;;3.53;;
75289;SDS011;63883;48.996;20.804;2023-02-14T09:02:19;8.13;;;3.75;;
75289;SDS011;63883;48.996;20.804;2023-02-14T09:04:44;8.10;;;3.90;;
75289;SDS011;63883;48.996;20.804;2023-02-14T09:07:10;5.10;;;3.25;;
75289;SDS011;63883;48.996;20.804;2023-02-14T09:09:36;9.15;;;4.05;;
75289;SDS011;63883;48.996;20.804;2023-02-14T09:12:03;36.97;;;17.50;;
75289;SDS011;63883;48.996;20.804;2023-02-14T09:14:29;12.25;;;6.60;;
75289;SDS011;63883;48.996;20.804;2023-02-14T09:17:00;9.77;;;5.65;;
75289;SDS011;63883;48.996;20.804;2023-02-14T09:19:30;10.68;;;6.70;;
75289;SDS011;63883;48.996;20.804;2023-02-14T09:21:57;6.80;;;4.43;;
75289;SDS011;63883;48.996;20.804;2023-02-14T09:24:22;6.35;;;3.42;;
75289;SDS011;63883;48.996;20.804;2023-02-14T09:26:48;5.13;;;3.10;;
75289;SDS011;63883;48.996;20.804;2023-02-14T09:29:14;3.65;;;2.22;;
75289;SDS011;63883;48.996;20.804;2023-02-14T09:31:40;3.72;;;2.10;;
75289;SDS011;63883;48.996;20.804;2023-02-14T09:34:06;6.63;;;4.00;;
75289;SDS011;63883;48.996;20.804;2023-02-14T09:36:32;7.18;;;5.57;;
75289;SDS011;63883;48.996;20.804;2023-02-14T09:39:16;15.55;;;8.60;;
75289;SDS011;63883;48.996;20.804;2023-02-14T09:44:42;8.13;;;4.15;;
75289;SDS011;63883;48.996;20.804;2023-02-14T09:52:13;13.40;;;7.50;;
75289;SDS011;63883;48.996;20.804;2023-02-14T09:54:43;40.40;;;15.55;;
75289;SDS011;63883;48.996;20.804;2023-02-14T10:05:22;7.13;;;2.95;;
75289;SDS011;63883;48.996;20.804;2023-02-14T10:18:13;13.65;;;5.50;;
75289;SDS011;63883;48.996;20.804;2023-02-14T10:20:57;17.35;;;9.57;;
75289;SDS011;63883;48.996;20.804;2023-02-14T10:23:38;15.05;;;6.50;;
75289;SDS011;63883;48.996;20.804;2023-02-14T10:26:08;20.10;;;7.30;;
75289;SDS011;63883;48.996;20.804;2023-02-14T10:31:22;20.08;;;6.97;;
75289;SDS011;63883;48.996;20.804;2023-02-14T10:39:09;6.32;;;2.35;;
75289;SDS011;63883;48.996;20.804;2023-02-14T10:46:48;6.63;;;3.78;;
75289;SDS011;63883;48.996;20.804;2023-02-14T10:52:14;7.88;;;3.88;;
75289;SDS011;63883;48.996;20.804;2023-02-14T10:54:52;8.05;;;4.10;;
75289;SDS011;63883;48.996;20.804;2023-02-14T10:57:25;10.93;;;4.45;;
75289;SDS011;63883;48.996;20.804;2023-02-14T10:59:59;7.22;;;3.55;;
75289;SDS011;63883;48.996;20.804;2023-02-14T11:02:33;10.70;;;5.97;;
75289;SDS011;63883;48.996;20.804;2023-02-14T11:05:02;5.45;;;3.40;;
75289;SDS011;63883;48.996;20.804;2023-02-14T11:07:29;5.55;;;3.08;;
75289;SDS011;63883;48.996;20.804;2023-02-14T11:09:55;7.72;;;4.88;;
75289;SDS011;63883;48.996;20.804;2023-02-14T11:15:27;13.35;;;7.18;;
75289;SDS011;63883;48.996;20.804;2023-02-14T11:18:16;4.78;;;2.90;;
75289;SDS011;63883;48.996;20.804;2023-02-14T11:21:05;4.93;;;3.13;;
75289;SDS011;63883;48.996;20.804;2023-02-14T11:23:37;4.93;;;3.10;;
75289;SDS011;63883;48.996;20.804;2023-02-14T11:28:52;8.48;;;3.75;;
75289;SDS011;63883;48.996;20.804;2023-02-14T11:31:25;6.03;;;3.95;;
75289;SDS011;63883;48.996;20.804;2023-02-14T11:33:56;4.95;;;4.00;;
75289;SDS011;63883;48.996;20.804;2023-02-14T11:36:23;6.43;;;4.47;;
75289;SDS011;63883;48.996;20.804;2023-02-14T11:38:54;6.45;;;5.20;;
75289;SDS011;63883;48.996;20.804;2023-02-14T11:44:18;5.00;;;3.90;;
75289;SDS011;63883;48.996;20.804;2023-02-14T11:46:52;4.45;;;3.38;;
75289;SDS011;63883;48.996;20.804;2023-02-14T11:49:27;4.72;;;3.55;;
75289;SDS011;63883;48.996;20.804;2023-02-14T11:51:56;6.18;;;4.18;;
75289;SDS011;63883;48.996;20.804;2023-02-14T11:57:01;6.30;;;4.43;;
75289;SDS011;63883;48.996;20.804;2023-02-14T11:59:31;6.18;;;4.25;;
75289;SDS011;63883;48.996;20.804;2023-02-14T12:02:09;5.93;;;3.63;;
75289;SDS011;63883;48.996;20.804;2023-02-14T12:04:48;7.28;;;4.53;;
75289;SDS011;63883;48.996;20.804;2023-02-14T12:07:20;5.38;;;3.90;;
75289;SDS011;63883;48.996;20.804;2023-02-14T12:10:05;5.53;;;3.95;;
75289;SDS011;63883;48.996;20.804;2023-02-14T12:15:26;5.43;;;3.67;;
75289;SDS011;63883;48.996;20.804;2023-02-14T12:18:01;6.03;;;4.68;;
75289;SDS011;63883;48.996;20.804;2023-02-14T12:20:37;7.75;;;5.10;;
75289;SDS011;63883;48.996;20.804;2023-02-14T12:26:00;7.65;;;4.68;;
75289;SDS011;63883;48.996;20.804;2023-02-14T12:28:34;7.45;;;4.80;;
75289;SDS011;63883;48.996;20.804;2023-02-14T12:31:11;6.38;;;4.50;;
75289;SDS011;63883;48.996;20.804;2023-02-14T12:33:38;4.80;;;3.85;;
75289;SDS011;63883;48.996;20.804;2023-02-14T12:36:09;5.18;;;4.00;;
75289;SDS011;63883;48.996;20.804;2023-02-14T12:38:54;5.28;;;3.83;;
75289;SDS011;63883;48.996;20.804;2023-02-14T12:41:48;6.10;;;4.28;;
75289;SDS011;63883;48.996;20.804;2023-02-14T13:00:35;8.35;;;5.13;;
75289;SDS011;63883;48.996;20.804;2023-02-14T13:19:54;15.88;;;8.70;;
75289;SDS011;63883;48.996;20.804;2023-02-14T13:22:24;7.00;;;4.97;;
75289;SDS011;63883;48.996;20.804;2023-02-14T13:24:56;9.48;;;5.72;;
75289;SDS011;63883;48.996;20.804;2023-02-14T13:27:26;10.13;;;6.30;;
75289;SDS011;63883;48.996;20.804;2023-02-14T13:30:03;9.32;;;5.93;;
75289;SDS011;63883;48.996;20.804;2023-02-14T13:32:39;11.25;;;6.00;;
75289;SDS011;63883;48.996;20.804;2023-02-14T13:35:06;7.03;;;4.82;;
75289;SDS011;63883;48.996;20.804;2023-02-14T13:37:33;11.25;;;6.45;;
75289;SDS011;63883;48.996;20.804;2023-02-14T13:40:02;11.00;;;6.35;;
75289;SDS011;63883;48.996;20.804;2023-02-14T13:53:23;6.63;;;4.20;;
75289;SDS011;63883;48.996;20.804;2023-02-14T13:56:50;5.78;;;4.47;;
75289;SDS011;63883;48.996;20.804;2023-02-14T13:58:54;9.40;;;5.75;;
75289;SDS011;63883;48.996;20.804;2023-02-14T14:01:30;13.50;;;7.57;;
75289;SDS011;63883;48.996;20.804;2023-02-14T14:04:02;7.72;;;5.43;;
75289;SDS011;63883;48.996;20.804;2023-02-14T14:17:34;6.40;;;4.00;;
75289;SDS011;63883;48.996;20.804;2023-02-14T14:22:50;5.28;;;4.50;;
75289;SDS011;63883;48.996;20.804;2023-02-14T14:25:28;6.35;;;4.07;;
75289;SDS011;63883;48.996;20.804;2023-02-14T14:27:58;5.90;;;4.45;;
75289;SDS011;63883;48.996;20.804;2023-02-14T14:30:27;6.38;;;4.38;;
75289;SDS011;63883;48.996;20.804;2023-02-14T14:33:10;8.10;;;5.85;;
75289;SDS011;63883;48.996;20.804;2023-02-14T14:36:01;8.18;;;5.50;;
75289;SDS011;63883;48.996;20.804;2023-02-14T14:38:32;11.50;;;6.00;;
75289;SDS011;63883;48.996;20.804;2023-02-14T14:41:09;11.93;;;6.50;;
75289;SDS011;63883;48.996;20.804;2023-02-14T14:43:35;7.82;;;5.88;;
75289;SDS011;63883;48.996;20.804;2023-02-14T14:46:06;5.93;;;4.80;;
75289;SDS011;63883;48.996;20.804;2023-02-14T14:48:37;6.03;;;4.45;;
75289;SDS011;63883;48.996;20.804;2023-02-14T14:51:17;9.23;;;5.50;;
75289;SDS011;63883;48.996;20.804;2023-02-14T14:53:47;9.40;;;6.07;;
75289;SDS011;63883;48.996;20.804;2023-02-14T14:56:24;7.63;;;5.75;;
75289;SDS011;63883;48.996;20.804;2023-02-14T14:58:52;7.10;;;4.95;;
75289;SDS011;63883;48.996;20.804;2023-02-14T15:01:29;7.65;;;5.88;;
75289;SDS011;63883;48.996;20.804;2023-02-14T15:06:41;7.35;;;4.80;;
75289;SDS011;63883;48.996;20.804;2023-02-14T15:09:50;5.15;;;4.55;;
75289;SDS011;63883;48.996;20.804;2023-02-14T15:11:58;7.57;;;5.40;;
75289;SDS011;63883;48.996;20.804;2023-02-14T15:14:45;5.00;;;3.63;;
75289;SDS011;63883;48.996;20.804;2023-02-14T15:17:21;6.32;;;4.35;;
75289;SDS011;63883;48.996;20.804;2023-02-14T15:19:54;7.60;;;4.63;;
75289;SDS011;63883;48.996;20.804;2023-02-14T15:22:24;6.45;;;4.78;;
75289;SDS011;63883;48.996;20.804;2023-02-14T15:24:53;5.90;;;4.63;;
75289;SDS011;63883;48.996;20.804;2023-02-14T15:27:21;6.20;;;4.20;;
75289;SDS011;63883;48.996;20.804;2023-02-14T15:29:55;7.88;;;5.47;;
75289;SDS011;63883;48.996;20.804;2023-02-14T15:32:34;7.60;;;4.82;;
75289;SDS011;63883;48.996;20.804;2023-02-14T15:35:02;7.32;;;4.85;;
75289;SDS011;63883;48.996;20.804;2023-02-14T15:37:30;7.50;;;4.90;;
75289;SDS011;63883;48.996;20.804;2023-02-14T15:39:57;8.52;;;5.15;;
75289;SDS011;63883;48.996;20.804;2023-02-14T15:42:25;6.60;;;3.90;;
75289;SDS011;63883;48.996;20.804;2023-02-14T15:45:12;5.90;;;3.97;;
75289;SDS011;63883;48.996;20.804;2023-02-14T15:47:46;7.22;;;4.30;;
75289;SDS011;63883;48.996;20.804;2023-02-14T15:50:16;7.57;;;4.30;;
75289;SDS011;63883;48.996;20.804;2023-02-14T15:52:44;6.55;;;3.92;;
75289;SDS011;63883;48.996;20.804;2023-02-14T15:55:11;12.15;;;5.72;;
75289;SDS011;63883;48.996;20.804;2023-02-14T15:57:43;7.35;;;4.00;;
75289;SDS011;63883;48.996;20.804;2023-02-14T16:00:15;7.82;;;4.80;;
75289;SDS011;63883;48.996;20.804;2023-02-14T16:02:49;11.63;;;6.10;;
75289;SDS011;63883;48.996;20.804;2023-02-14T16:07:58;10.95;;;6.07;;
75289;SDS011;63883;48.996;20.804;2023-02-14T16:10:33;17.50;;;9.32;;
75289;SDS011;63883;48.996;20.804;2023-02-14T16:13:04;13.50;;;7.28;;
75289;SDS011;63883;48.996;20.804;2023-02-14T16:21:20;12.48;;;6.63;;
75289;SDS011;63883;48.996;20.804;2023-02-14T16:26:29;15.15;;;8.20;;
75289;SDS011;63883;48.996;20.804;2023-02-14T16:28:56;31.90;;;15.60;;
75289;SDS011;63883;48.996;20.804;2023-02-14T16:31:21;40.85;;;18.58;;
75289;SDS011;63883;48.996;20.804;2023-02-14T16:33:49;54.60;;;22.33;;
75289;SDS011;63883;48.996;20.804;2023-02-14T16:36:22;55.22;;;24.92;;
75289;SDS011;63883;48.996;20.804;2023-02-14T16:38:51;64.50;;;26.25;;
75289;SDS011;63883;48.996;20.804;2023-02-14T16:41:21;35.83;;;15.90;;
75289;SDS011;63883;48.996;20.804;2023-02-14T16:43:50;28.45;;;13.75;;
75289;SDS011;63883;48.996;20.804;2023-02-14T16:46:17;26.30;;;11.93;;
75289;SDS011;63883;48.996;20.804;2023-02-14T16:48:46;22.92;;;10.80;;
75289;SDS011;63883;48.996;20.804;2023-02-14T16:51:16;20.70;;;11.07;;
75289;SDS011;63883;48.996;20.804;2023-02-14T16:53:44;20.65;;;10.45;;
75289;SDS011;63883;48.996;20.804;2023-02-14T16:56:12;27.88;;;13.20;;
75289;SDS011;63883;48.996;20.804;2023-02-14T16:58:41;29.23;;;14.25;;
75289;SDS011;63883;48.996;20.804;2023-02-14T17:01:07;28.67;;;13.95;;
75289;SDS011;63883;48.996;20.804;2023-02-14T17:03:33;39.53;;;18.80;;
75289;SDS011;63883;48.996;20.804;2023-02-14T17:05:59;39.15;;;19.58;;
75289;SDS011;63883;48.996;20.804;2023-02-14T17:08:27;34.05;;;17.83;;
75289;SDS011;63883;48.996;20.804;2023-02-14T17:10:53;35.72;;;17.20;;
75289;SDS011;63883;48.996;20.804;2023-02-14T17:13:22;36.80;;;17.65;;
75289;SDS011;63883;48.996;20.804;2023-02-14T17:18:16;42.30;;;19.13;;
75289;SDS011;63883;48.996;20.804;2023-02-14T17:20:44;62.28;;;26.27;;
75289;SDS011;63883;48.996;20.804;2023-02-14T17:23:10;48.53;;;22.58;;
75289;SDS011;63883;48.996;20.804;2023-02-14T17:25:36;61.90;;;26.35;;
75289;SDS011;63883;48.996;20.804;2023-02-14T17:28:03;30.35;;;13.57;;
75289;SDS011;63883;48.996;20.804;2023-02-14T17:30:29;19.02;;;9.48;;
75289;SDS011;63883;48.996;20.804;2023-02-14T17:32:55;18.48;;;9.88;;
75289;SDS011;63883;48.996;20.804;2023-02-14T17:35:21;17.75;;;9.23;;
75289;SDS011;63883;48.996;20.804;2023-02-14T17:37:46;23.10;;;11.98;;
75289;SDS011;63883;48.996;20.804;2023-02-14T17:40:12;20.25;;;10.85;;
75289;SDS011;63883;48.996;20.804;2023-02-14T17:42:39;19.27;;;10.60;;
75289;SDS011;63883;48.996;20.804;2023-02-14T17:45:06;18.98;;;8.77;;